Latest Weather Observations for Dwellingup

IDW60801

Issued at 10:32 pm WST Thursday 11 February 2016 (issued every 30 minutes, with the page automatically refreshed every 10 minutes)

About weather observations | Map of weather stations | Latest weather observations for WA | Other Formats
Station Details ID: 009538 Name: DWELLINGUP Lat: -32.71 Lon: 116.06 Height: 267.0 m
Data from the previous 72 hours. | See also: Recent months at Dwellingup
Date/Time
WST
Temp
°C
App
Temp
°C
Dew
Point
Rel
Hum
%
Delta-T
°C
Wind Press
QNH
hPa
Press
MSL
hPa
Rain
since 9 am
mm
Dir
 
Spd
km/h
Gust
km/h
Spd
kts
Gust
kts
11/10:30pm 20.5 20.5 17.1 81 2.1 SW 13 20 7 11 1015.3 1014.2 0.0
11/10:00pm 20.9 20.8 16.9 78 2.5 WSW 13 19 7 10 1015.5 1014.4 0.0
11/09:30pm 21.7 21.6 16.9 74 3.0 W 13 19 7 10 1015.4 1014.3 0.0
11/09:00pm 21.9 21.2 16.4 71 3.4 WSW 15 22 8 12 1015.2 1014.1 0.0
11/08:30pm 22.7 22.0 16.3 67 3.9 WSW 15 20 8 11 1015.0 1013.9 0.0
11/08:00pm 23.3 22.3 16.6 66 4.1 WSW 17 22 9 12 1014.7 1013.6 0.0
11/07:30pm 24.8 23.8 16.5 60 5.2 W 17 26 9 14 1014.4 1013.3 0.0
11/07:00pm 27.2 26.7 15.9 50 7.0 W 13 19 7 10 1014.0 1012.9 0.0
11/06:30pm 30.1 28.2 10.6 30 11.3 W 11 17 6 9 1013.5 1012.3 0.0
11/06:00pm 32.0 27.8 3.9 17 14.7 WSW 15 26 8 14 1013.1 1011.9 0.0
11/05:30pm 33.7 29.8 5.3 17 15.3 WSW 15 30 8 16 1012.9 1011.7 0.0
11/05:00pm 34.4 30.4 6.7 18 15.4 W 17 24 9 13 1012.6 1011.4 0.0
11/04:30pm 35.1 31.8 8.0 19 15.4 WSW 15 28 8 15 1012.5 1011.3 0.0
11/04:00pm 35.4 33.1 10.4 22 14.7 W 13 20 7 11 1012.5 1011.3 0.0
11/03:30pm 36.3 33.4 9.8 20 15.5 W 15 30 8 16 1012.5 1011.3 0.0
11/03:00pm 35.9 34.3 12.8 25 14.1 WNW 13 28 7 15 1012.5 1011.3 0.0
11/02:30pm 35.0 32.8 13.2 27 13.4 NW 17 30 9 16 1012.8 1011.6 0.0
11/02:00pm 35.3 33.6 14.6 29 13.0 NW 17 30 9 16 1013.0 1011.8 0.0
11/01:30pm 34.9 33.2 14.7 29 12.6 NW 17 28 9 15 1013.3 1012.1 0.0
11/01:00pm 34.9 34.7 16.7 34 11.7 NW 13 22 7 12 1013.5 1012.3 0.0
11/12:30pm 34.9 34.7 16.7 34 11.7 WNW 13 28 7 15 1013.6 1012.4 0.0
11/12:00pm 34.2 33.4 15.1 31 12.0 W 13 20 7 11 1013.7 1012.5 0.0
11/11:30am 34.4 32.9 14.3 30 12.5 WNW 15 24 8 13 1013.8 1012.6 0.0
11/11:00am 33.2 32.8 15.2 33 11.3 W 11 19 6 10 1014.0 1012.9 0.0
11/10:30am 31.9 31.6 15.4 37 10.3 WNW 11 22 6 12 1014.1 1013.0 0.0
11/10:00am 32.2 33.1 16.5 39 10.0 WNW 7 11 4 6 1014.0 1012.9 0.0
11/09:30am 30.9 31.1 15.7 39 9.5 NNW 9 13 5 7 1014.1 1013.0 0.0
11/09:00am 28.1 29.5 16.4 49 7.3 NE 4 7 2 4 1014.2 1013.1 0.0
11/08:30am 25.6 26.0 16.2 56 5.8 ENE 9 13 5 7 1014.3 1013.2 0.0
11/08:00am 23.3 23.8 15.6 62 4.7 E 7 11 4 6 1014.4 1013.3 0.0
11/07:30am 21.8 22.2 15.4 67 3.9 SE 7 13 4 7 1014.4 1013.3 0.0
11/07:00am 20.2 19.9 15.4 74 2.9 SE 11 17 6 9 1014.3 1013.2 0.0
11/06:30am 19.3 18.2 15.2 77 2.4 SE 15 19 8 10 1014.0 1012.9 0.0
11/06:00am 18.7 17.3 14.4 76 2.5 SE 15 19 8 10 1013.7 1012.5 0.0
11/05:30am 18.9 17.5 14.6 76 2.5 SE 15 17 8 9 1013.5 1012.3 0.0
11/05:00am 19.3 18.0 14.8 75 2.7 ESE 15 17 8 9 1013.3 1012.1 0.0
11/04:30am 19.6 18.2 14.4 72 3.1 SE 15 20 8 11 1013.1 1011.9 0.0
11/04:00am 20.2 18.5 14.8 71 3.2 SE 17 20 9 11 1013.2 1012.0 0.0
11/03:30am 20.4 18.9 14.1 67 3.7 SE 15 20 8 11 1013.3 1012.1 0.0
11/03:00am 20.6 18.5 13.6 64 4.1 SE 17 22 9 12 1013.2 1012.0 0.0
11/02:30am 20.9 18.7 13.4 62 4.4 SE 17 26 9 14 1013.4 1012.2 0.0
11/02:00am 21.3 19.0 13.0 59 4.8 SE 17 24 9 13 1013.5 1012.3 0.0
11/01:30am 21.6 19.1 12.2 55 5.4 SE 17 22 9 12 1013.6 1012.4 0.0
11/01:00am 21.9 19.2 11.6 52 5.8 SE 17 22 9 12 1013.8 1012.6 0.0
11/12:30am 22.4 19.5 10.9 48 6.4 SE 17 24 9 13 1013.9 1012.8 0.0
11/12:00am 22.7 20.2 11.1 48 6.5 SE 15 24 8 13 1014.2 1013.1 0.0
 
Date/Time
WST
Temp
°C
App
Temp
°C
Dew
Point
Rel
Hum
%
Delta-T
°C
Wind Press
QNH
hPa
Press
MSL
hPa
Rain
since 9 am
mm
Dir
 
Spd
km/h
Gust
km/h
Spd
kts
Gust
kts
10/11:30pm 22.6 19.8 11.4 49 6.3 SE 17 24 9 13 1014.2 1013.1 0.0
10/11:00pm 22.8 20.6 12.1 51 6.1 SE 15 20 8 11 1014.4 1013.3 0.0
10/10:30pm 23.3 21.5 12.0 49 6.5 SSE 13 13 7 7 1014.4 1013.3 0.0
10/10:00pm 23.8 22.4 12.1 48 6.7 S 11 13 6 7 1014.4 1013.3 0.0
10/09:30pm 24.9 23.0 11.8 44 7.5 SSW 13 17 7 9 1014.5 1013.4 0.0
10/09:00pm 26.0 24.0 11.4 40 8.4 SW 13 19 7 10 1014.4 1013.3 0.0
10/08:30pm 27.7 25.0 10.4 34 9.8 SW 15 19 8 10 1014.1 1013.0 0.0
10/08:00pm 29.0 26.3 10.2 31 10.7 SW 15 19 8 10 1014.0 1012.9 0.0
10/07:30pm 30.6 28.0 9.5 27 12.0 WSW 13 17 7 9 1014.0 1012.9 0.0
10/07:00pm 32.4 29.5 8.0 22 13.7 WSW 13 17 7 9 1013.6 1012.4 0.0
10/06:30pm 35.2 31.9 4.7 15 16.4 WSW 11 15 6 8 1013.4 1012.2 0.0
10/06:00pm 37.1 33.3 1.8 11 18.4 WSW 11 17 6 9 1013.2 1012.0 0.0
10/05:30pm 37.6 33.6 0.8 10 18.9 WSW 11 17 6 9 1013.1 1011.9 0.0
10/05:00pm 38.4 33.6 0.0 9 19.6 WNW 15 22 8 12 1013.1 1011.9 0.0
10/04:30pm 38.6 33.8 0.1 9 19.7 W 15 24 8 13 1013.0 1011.8 0.0
10/04:00pm 39.4 34.1 -0.9 8 20.4 NW 17 30 9 16 1013.1 1011.9 0.0
10/03:30pm 39.0 33.2 -1.2 8 20.2 WNW 19 32 10 17 1013.2 1012.0 0.0
10/03:00pm 39.1 33.8 1.9 10 19.6 NW 19 30 10 16 1013.3 1012.1 0.0
10/02:30pm 40.7 34.7 -1.8 7 21.4 NW 20 35 11 19 1013.5 1012.3 0.0
10/02:00pm 39.9 34.2 -0.5 8 20.6 NW 19 30 10 16 1013.6 1012.4 0.0
10/01:30pm 40.0 34.7 -0.5 8 20.7 NW 17 30 9 16 1013.7 1012.5 0.0
10/01:00pm 39.4 33.9 0.7 9 20.1 NW 19 30 10 16 1013.9 1012.8 0.0
10/12:30pm 39.1 34.7 0.5 9 19.9 NW 13 26 7 14 1014.0 1012.9 0.0
10/12:00pm 37.8 35.5 4.7 13 18.1 N 6 15 3 8 1014.2 1013.1 0.0
10/11:30am 36.5 34.6 7.5 17 16.4 NE 7 17 4 9 1014.7 1013.6 0.0
10/11:00am 34.6 33.4 10.4 23 14.2 ENE 7 13 4 7 1015.0 1013.9 0.0
10/10:30am 32.4 30.7 9.9 25 13.0 E 9 17 5 9 1015.4 1014.3 0.0
10/10:00am 31.1 28.9 12.0 31 11.3 E 15 22 8 12 1015.5 1014.4 0.0
10/09:30am 28.9 27.5 12.3 36 9.8 E 11 17 6 9 1015.9 1014.7 0.0
10/09:00am 27.1 25.6 13.1 42 8.3 ESE 13 20 7 11 1015.9 1014.7 0.0
10/08:30am 25.5 23.4 13.7 48 7.0 ESE 17 26 9 14 1016.0 1014.8 0.0
10/08:00am 23.6 21.3 14.0 55 5.7 ESE 19 28 10 15 1016.0 1014.8 0.0
10/07:30am 21.6 19.2 13.8 61 4.6 ESE 19 30 10 16 1016.0 1014.8 0.0
10/07:00am 20.8 18.4 13.7 64 4.1 ESE 19 26 10 14 1016.1 1014.9 0.0
10/06:30am 20.4 18.0 13.8 66 3.8 SE 19 28 10 15 1015.9 1014.7 0.0
10/06:00am 20.2 17.6 13.9 67 3.7 SE 20 28 11 15 1015.7 1014.5 0.0
10/05:30am 20.5 17.9 13.9 66 3.9 SE 20 30 11 16 1015.3 1014.2 0.0
10/05:00am 20.8 18.4 13.7 64 4.1 SE 19 28 10 15 1015.0 1013.9 0.0
10/04:30am 21.3 18.9 13.7 62 4.4 SE 19 26 10 14 1014.7 1013.6 0.0
10/04:00am 21.9 19.3 13.8 60 4.8 SE 20 28 11 15 1014.7 1013.6 0.0
10/03:30am 22.5 20.0 13.6 57 5.2 SE 19 26 10 14 1014.5 1013.4 0.0
10/03:00am 22.3 19.8 13.6 58 5.1 SE 19 28 10 15 1014.5 1013.4 0.0
10/02:30am 22.0 19.5 13.4 58 5.0 SE 19 24 10 13 1014.6 1013.5 0.0
10/02:00am 22.2 19.5 13.0 56 5.3 SE 19 28 10 15 1014.7 1013.6 0.0
10/01:30am 23.0 20.8 13.2 54 5.7 SE 17 28 9 15 1014.8 1013.7 0.0
10/01:00am 23.8 21.6 13.4 52 6.1 SE 17 26 9 14 1014.9 1013.8 0.0
10/12:30am 24.3 22.1 13.2 50 6.5 SE 17 28 9 15 1015.0 1013.9 0.0
10/12:00am 25.2 22.8 12.8 46 7.3 SE 17 22 9 12 1015.3 1014.2 0.0
 
Date/Time
WST
Temp
°C
App
Temp
°C
Dew
Point
Rel
Hum
%
Delta-T
°C
Wind Press
QNH
hPa
Press
MSL
hPa
Rain
since 9 am
mm
Dir
 
Spd
km/h
Gust
km/h
Spd
kts
Gust
kts
09/11:30pm 26.1 23.8 12.9 44 7.8 SE 17 26 9 14 1015.4 1014.3 0.0
09/11:00pm 24.8 21.7 10.3 40 8.1 SE 17 26 9 14 1015.5 1014.4 0.0
09/10:30pm 24.1 20.3 7.7 35 8.7 SE 17 32 9 17 1015.8 1014.6 0.0
09/10:00pm 24.3 19.9 6.6 32 9.3 SE 19 26 10 14 1016.0 1014.8 0.0
09/09:30pm 24.9 21.8 7.1 32 9.4 SSE 13 15 7 8 1015.4 1014.3 0.0
09/09:00pm 25.4 22.5 6.6 30 9.9 SSE 11 11 6 6 1015.3 1014.2 0.0
09/08:30pm 26.6 23.8 7.1 29 10.4 S 11 13 6 7 1015.2 1014.1 0.0
09/08:00pm 27.9 25.4 6.6 26 11.4 SSW 9 13 5 7 1015.0 1013.9 0.0
09/07:30pm 29.5 26.0 5.6 22 12.7 SW 13 15 7 8 1014.9 1013.8 0.0
09/07:00pm 32.4 28.1 3.4 16 15.1 WSW 15 17 8 9 1014.6 1013.5 0.0
09/06:30pm 35.5 31.3 -0.8 10 18.0 W 11 19 6 10 1014.5 1013.4 0.0
09/06:00pm 37.4 33.2 -0.8 9 19.1 W 11 17 6 9 1014.4 1013.3 0.0
09/05:30pm 38.0 33.5 -0.3 9 19.4 W 13 20 7 11 1014.5 1013.4 0.0
09/05:00pm 38.1 33.6 -0.3 9 19.5 W 13 26 7 14 1014.4 1013.3 0.0
09/04:30pm 38.3 33.2 -1.7 8 19.9 WNW 15 24 8 13 1014.5 1013.4 0.0
09/04:00pm 38.3 32.5 -1.7 8 19.9 WNW 19 30 10 16 1014.7 1013.6 0.0
09/03:30pm 38.4 32.0 -1.6 8 19.9 WNW 22 33 12 18 1014.7 1013.6 0.0
09/03:00pm 38.7 32.5 -3.2 7 20.4 WNW 20 35 11 19 1014.8 1013.7 0.0
09/02:30pm 38.6 32.4 -3.3 7 20.3 WNW 20 35 11 19 1014.8 1013.7 0.0
09/02:00pm 39.3 33.1 -2.8 7 20.7 WNW 20 33 11 18 1015.0 1013.9 0.0
09/01:30pm 39.0 33.0 -3.0 7 20.5 NW 19 35 10 19 1015.2 1014.1 0.0
09/01:00pm 39.5 33.6 -0.8 8 20.4 WNW 20 35 11 19 1015.2 1014.1 0.0
09/12:30pm 39.9 34.7 -2.4 7 21.0 NNW 15 28 8 15 1015.7 1014.5 0.0
09/12:00pm 38.9 33.9 -1.3 8 20.1 NNW 15 33 8 18 1015.9 1014.7 0.0
09/11:30am 38.7 34.1 -1.4 8 20.1 N 13 28 7 15 1016.2 1015.0 0.0
09/11:00am 37.1 32.2 1.8 11 18.4 NNW 17 30 9 16 1016.6 1015.4 0.0
09/10:30am 35.8 32.2 3.1 13 17.2 N 11 19 6 10 1016.9 1015.7 0.0
09/10:00am 33.9 30.4 3.7 15 15.9 NNE 11 19 6 10 1017.2 1016.1 0.0
09/09:30am 32.9 29.0 5.5 18 14.8 N 15 24 8 13 1017.1 1015.9 0.0
09/09:00am 31.1 28.5 6.2 21 13.4 NNE 9 19 5 10 1017.1 1015.9 0.0
09/08:30am 28.8 27.3 10.5 32 10.5 NE 9 17 5 9 1017.1 1015.9 0.0
09/08:00am 25.2 23.7 10.6 40 8.2 NE 9 15 5 8 1017.0 1015.8 0.0
09/07:30am 21.7 20.1 10.2 48 6.3 NE 9 15 5 8 1017.0 1015.8 0.0
09/07:00am 19.2 17.1 9.7 54 5.1 E 11 15 6 8 1016.7 1015.5 0.0
09/06:30am 18.1 14.9 8.4 53 5.1 E 15 19 8 10 1016.2 1015.0 0.0
09/06:00am 18.0 14.6 7.7 51 5.3 ENE 15 19 8 10 1016.1 1014.9 0.0
09/05:30am 18.4 15.4 7.8 50 5.5 E 13 17 7 9 1015.9 1014.7 0.0
09/05:00am 18.9 15.6 8.0 49 5.7 E 15 20 8 11 1015.7 1014.5 0.0
09/04:30am 18.7 15.1 8.4 51 5.4 E 17 19 9 10 1015.4 1014.3 0.0
09/04:00am 19.1 15.5 8.4 50 5.6 E 17 22 9 12 1015.2 1014.1 0.0
09/03:30am 19.9 16.5 7.6 45 6.4 ESE 15 19 8 10 1015.1 1014.0 0.0
09/03:00am 20.5 16.7 7.5 43 6.8 SE 17 19 9 10 1015.2 1014.1 0.0
09/02:30am 20.8 16.8 6.7 40 7.2 SE 17 22 9 12 1015.2 1014.1 0.0
09/02:00am 20.9 17.1 7.5 42 7.0 SE 17 20 9 11 1015.4 1014.3 0.0
09/01:30am 21.5 18.0 7.3 40 7.4 SE 15 20 8 11 1015.7 1014.5 0.0
09/01:00am 22.2 18.4 7.6 39 7.7 SE 17 19 9 10 1015.9 1014.7 0.0
09/12:30am 22.7 18.8 7.3 37 8.1 SE 17 22 9 12 1016.1 1014.9 0.0
09/12:00am 22.8 19.0 7.4 37 8.1 SE 17 22 9 12 1016.4 1015.2 0.0
 
Date/Time
WST
Temp
°C
App
Temp
°C
Dew
Point
Rel
Hum
%
Delta-T
°C
Wind Press
QNH
hPa
Press
MSL
hPa
Rain
since 9 am
mm
Dir
 
Spd
km/h
Gust
km/h
Spd
kts
Gust
kts
08/11:30pm 23.0 18.6 6.7 35 8.5 SE 19 24 10 13 1016.6 1015.4 0.0
08/11:00pm 23.5 19.9 6.7 34 8.8 SE 15 19 8 10 1016.8 1015.6 0.0

Other Formats:

Comma delimited format used in spreadsheet applications
http://www.bom.gov.au/fwo/IDW60801/IDW60801.94620.axf

JavaScript Object Notation format (JSON) in row-major order
http://www.bom.gov.au/fwo/IDW60801/IDW60801.94620.json